createdAt,value
2022-09-20T00:00:25.287Z,101981.81
2022-09-20T00:02:57.609Z,101986.56
2022-09-20T00:05:29.982Z,101992.06
2022-09-20T00:08:03.410Z,101981.78
2022-09-20T00:10:39.547Z,101983.34
2022-09-20T00:13:12.871Z,101977.44
2022-09-20T00:15:45.883Z,101986.47
2022-09-20T00:18:18.361Z,101988.88
2022-09-20T00:20:51.209Z,101992.44
2022-09-20T00:23:23.537Z,101987.72
2022-09-20T00:25:57.059Z,101988.88
2022-09-20T00:28:29.942Z,101984.97
2022-09-20T00:31:02.591Z,101987.31
2022-09-20T00:33:53.480Z,101981.78
2022-09-20T00:36:27.212Z,101982.59
2022-09-20T00:39:00.651Z,101973.13
2022-09-20T00:41:33.432Z,101975.50
2022-09-20T00:44:24.858Z,101978.66
2022-09-20T00:46:57.724Z,101987.31
2022-09-20T00:49:30.186Z,101980.25
2022-09-20T00:52:02.506Z,101982.63
2022-09-20T00:54:34.979Z,101982.63
2022-09-20T00:57:07.390Z,101977.09
2022-09-20T00:59:41.423Z,101982.63
2022-09-20T01:02:19.791Z,101982.63
2022-09-20T01:04:52.580Z,101983.41
2022-09-20T01:07:25.488Z,101985.78
2022-09-20T01:09:58.070Z,101985.00
2022-09-20T01:12:32.104Z,101974.78
2022-09-20T01:15:05.542Z,101981.09
2022-09-20T01:17:41.460Z,101985.44
2022-09-20T01:20:13.933Z,101978.75
2022-09-20T01:22:49.416Z,101985.03
2022-09-20T01:25:32.392Z,101984.66
2022-09-20T01:28:04.718Z,101987.41
2022-09-20T01:30:41.261Z,101984.25
2022-09-20T01:33:16.731Z,101981.88
2022-09-20T01:35:50.323Z,101983.47
2022-09-20T01:38:22.566Z,101989.75
2022-09-20T01:41:05.983Z,101987.38
2022-09-20T01:43:47.801Z,101983.44
2022-09-20T01:46:31.204Z,101988.94
2022-09-20T01:49:16.156Z,101983.41
2022-09-20T01:52:07.351Z,101973.16
2022-09-20T01:55:12.061Z,101977.91
2022-09-20T01:58:03.122Z,101987.38
2022-09-20T02:00:46.013Z,101977.91
2022-09-20T02:03:18.302Z,101978.69
2022-09-20T02:06:09.499Z,101984.63
2022-09-20T02:08:41.790Z,101986.56
2022-09-20T02:11:14.142Z,101986.56
2022-09-20T02:13:58.557Z,101993.66
2022-09-20T02:16:33.965Z,101987.34
2022-09-20T02:19:25.007Z,102000.78
2022-09-20T02:22:10.384Z,101992.09
2022-09-20T02:24:54.578Z,101994.84
2022-09-20T02:27:33.026Z,101992.06
2022-09-20T02:30:17.499Z,101985.75
2022-09-20T02:33:08.527Z,101984.19
2022-09-20T02:35:44.120Z,101986.53
2022-09-20T02:38:19.397Z,101981.03
2022-09-20T02:40:57.838Z,101983.00
2022-09-20T02:43:42.496Z,101979.84
2022-09-20T02:46:26.723Z,101981.84
2022-09-20T02:49:13.676Z,101979.50
2022-09-20T02:51:51.854Z,101972.38
2022-09-20T02:54:30.461Z,101975.94
2022-09-20T02:57:15.527Z,101973.97
2022-09-20T02:59:59.774Z,101973.97
2022-09-20T03:02:51.325Z,101978.28
2022-09-20T03:05:42.125Z,101977.09
2022-09-20T03:08:24.737Z,101978.25
2022-09-20T03:11:04.257Z,101976.31
2022-09-20T03:13:56.006Z,101977.88
2022-09-20T03:16:28.279Z,101970.41
2022-09-20T03:19:14.286Z,101968.41
2022-09-20T03:22:06.865Z,101969.19
2022-09-20T03:24:50.921Z,101970.78
2022-09-20T03:27:52.803Z,101973.53
2022-09-20T03:30:41.687Z,101966.78
2022-09-20T03:33:25.796Z,101978.66
2022-09-20T03:36:08.455Z,101979.00
2022-09-20T03:38:43.572Z,101981.81
2022-09-20T03:41:31.552Z,101980.25
2022-09-20T03:44:24.147Z,101982.63
2022-09-20T03:47:08.638Z,101977.09
2022-09-20T03:50:00.900Z,101973.16
2022-09-20T03:52:36.275Z,101975.50
2022-09-20T03:55:24.223Z,101971.56
2022-09-20T03:57:56.549Z,101968.78
2022-09-20T04:00:31.899Z,101973.13
2022-09-20T04:03:23.071Z,101972.69
2022-09-20T04:06:19.376Z,101974.66
2022-09-20T04:09:02.625Z,101976.25
2022-09-20T04:11:44.177Z,101977.44
2022-09-20T04:14:20.753Z,101979.44
2022-09-20T04:17:03.446Z,101981.38
2022-09-20T04:19:35.778Z,101983.38
2022-09-20T04:22:08.381Z,101982.59
2022-09-20T04:24:46.059Z,101964.03
2022-09-20T04:27:24.323Z,101965.59
2022-09-20T04:30:07.855Z,101965.19
2022-09-20T04:32:44.290Z,101969.16
2022-09-20T04:35:35.440Z,101970.72
2022-09-20T04:38:14.097Z,101977.03
2022-09-20T04:40:56.882Z,101974.66
2022-09-20T04:43:29.173Z,101977.41
2022-09-20T04:46:28.800Z,101967.94
2022-09-20T04:49:01.050Z,101969.91
2022-09-20T04:51:45.749Z,101974.66
2022-09-20T04:54:34.974Z,101975.44
2022-09-20T04:57:19.609Z,101980.97
2022-09-20T05:00:12.157Z,101969.91
2022-09-20T05:02:59.759Z,101986.47
2022-09-20T05:05:35.720Z,101988.44
2022-09-20T05:08:26.544Z,101990.44
2022-09-20T05:11:17.700Z,101994.75
2022-09-20T05:17:07.946Z,101993.59
2022-09-20T05:19:58.577Z,101995.97
2022-09-20T05:22:42.764Z,101994.78
2022-09-20T05:25:28.133Z,102010.19
2022-09-20T05:28:19.117Z,102003.06
2022-09-20T05:31:00.411Z,102008.59
2022-09-20T05:33:40.647Z,102014.91
2022-09-20T05:36:12.918Z,102010.19
2022-09-20T05:39:03.453Z,102007.81
2022-09-20T05:41:48.205Z,102018.88
2022-09-20T05:44:20.451Z,102005.44
2022-09-20T05:46:58.968Z,102012.94
2022-09-20T05:49:38.864Z,102017.34
2022-09-20T05:52:11.168Z,102024.44
2022-09-20T05:54:52.005Z,102024.47
2022-09-20T05:57:24.293Z,102029.19
2022-09-20T06:00:15.692Z,102026.06
2022-09-20T06:02:48.275Z,102030.38
2022-09-20T06:05:33.833Z,102039.44
2022-09-20T06:08:26.434Z,102039.38
2022-09-20T06:11:17.488Z,102047.19
2022-09-20T06:14:09.264Z,102051.41
2022-09-20T06:16:53.706Z,102051.66
2022-09-20T06:19:34.988Z,102053.97
2022-09-20T06:22:17.277Z,102061.00
2022-09-20T06:24:54.975Z,102054.53
2022-09-20T06:27:30.971Z,102058.06
2022-09-20T06:30:05.868Z,102056.75
2022-09-20T06:32:52.524Z,102064.91
2022-09-20T06:35:28.809Z,102067.78
2022-09-20T06:38:26.523Z,102067.78
2022-09-20T06:41:17.799Z,102067.41
2022-09-20T06:43:50.736Z,102069.25
2022-09-20T06:46:23.067Z,102067.66
2022-09-20T06:48:56.080Z,102069.66
2022-09-20T06:51:33.621Z,102067.66
2022-09-20T06:54:11.332Z,102070.13
2022-09-20T06:56:44.479Z,102075.59
2022-09-20T06:59:16.969Z,102071.97
2022-09-20T07:01:49.812Z,102082.56
2022-09-20T07:04:23.349Z,102077.78
2022-09-20T07:07:05.105Z,102084.06
2022-09-20T07:09:40.942Z,102080.41
2022-09-20T07:12:13.364Z,102083.06
2022-09-20T07:14:45.712Z,102086.25
2022-09-20T07:17:18.170Z,102077.88
2022-09-20T07:19:51.132Z,102084.56
2022-09-20T07:22:23.664Z,102088.38
2022-09-20T07:24:55.959Z,102095.53
2022-09-20T07:27:29.585Z,102089.47
2022-09-20T07:30:02.516Z,102085.69
2022-09-20T07:32:34.935Z,102093.44
2022-09-20T07:35:10.324Z,102086.44
2022-09-20T07:37:42.662Z,102085.41
2022-09-20T07:40:15.812Z,102084.41
2022-09-20T07:42:49.654Z,102089.09
2022-09-20T07:45:23.940Z,102088.03
2022-09-20T07:47:58.144Z,102100.72
2022-09-20T07:50:30.987Z,102100.31
2022-09-20T07:53:04.713Z,102102.94
2022-09-20T07:55:37.006Z,102107.81
2022-09-20T07:58:09.307Z,102112.13
2022-09-20T08:00:41.594Z,102114.25
2022-09-20T08:03:13.874Z,102118.47
2022-09-20T08:05:46.333Z,102130.09
2022-09-20T08:08:18.793Z,102121.97
2022-09-20T08:10:51.119Z,102127.38
2022-09-20T08:16:16.932Z,102128.44
2022-09-20T08:18:50.663Z,102128.19
2022-09-20T08:21:26.941Z,102124.69
2022-09-20T08:23:59.744Z,102130.09
2022-09-20T08:26:32.297Z,102135.78
2022-09-20T08:29:07.959Z,102133.63
2022-09-20T08:31:42.213Z,102136.75
2022-09-20T08:34:18.409Z,102135.75
2022-09-20T08:36:52.639Z,102135.44
2022-09-20T08:42:17.893Z,102146.38
2022-09-20T08:44:59.444Z,102157.63
2022-09-20T08:47:37.378Z,102154.25
2022-09-20T08:50:11.741Z,102152.81
2022-09-20T08:52:47.699Z,102153.25
2022-09-20T08:55:21.816Z,102155.69
2022-09-20T08:57:55.686Z,102153.97
2022-09-20T09:00:33.286Z,102149.47
2022-09-20T09:03:07.164Z,102158.34
2022-09-20T09:05:50.593Z,102167.25
2022-09-20T09:08:25.575Z,102163.53
2022-09-20T09:10:59.263Z,102167.84
2022-09-20T09:13:39.498Z,102160.13
2022-09-20T09:16:15.249Z,102170.38
2022-09-20T09:18:49.215Z,102164.25
2022-09-20T09:21:25.891Z,102164.66
2022-09-20T09:24:13.729Z,102165.28
2022-09-20T09:26:46.587Z,102160.88
2022-09-20T09:29:20.203Z,102166.69
2022-09-20T09:31:54.505Z,102162.06
2022-09-20T09:34:31.197Z,102168.84
2022-09-20T09:37:03.504Z,102173.16
2022-09-20T09:39:37.948Z,102174.06
2022-09-20T09:42:21.124Z,102154.44
2022-09-20T09:44:53.411Z,102150.47
2022-09-20T09:47:27.785Z,102150.28
2022-09-20T09:50:02.903Z,102146.53
2022-09-20T09:52:37.286Z,102147.03
2022-09-20T09:55:13.249Z,102150.78
2022-09-20T09:57:55.214Z,102149.03
2022-09-20T10:00:29.690Z,102147.03
2022-09-20T10:03:07.809Z,102148.41
2022-09-20T10:05:58.724Z,102146.03
2022-09-20T10:08:31.215Z,102150.91
2022-09-20T10:11:15.612Z,102141.72
2022-09-20T10:14:06.705Z,102142.16
2022-09-20T10:16:39.277Z,102137.69
2022-09-20T10:19:29.802Z,102148.03
2022-09-20T10:22:11.027Z,102134.97
2022-09-20T10:25:03.102Z,102142.53
2022-09-20T10:27:41.618Z,102137.56
2022-09-20T10:30:19.125Z,102138.38
2022-09-20T10:32:55.200Z,102134.53
2022-09-20T10:35:39.432Z,102138.16
2022-09-20T10:38:14.772Z,102142.63
2022-09-20T10:41:12.114Z,102143.56
2022-09-20T10:43:53.834Z,102141.41
2022-09-20T10:46:45.379Z,102136.19
2022-09-20T10:49:26.950Z,102145.72
2022-09-20T10:52:17.564Z,102142.53
2022-09-20T10:54:49.843Z,102136.13
2022-09-20T10:57:38.305Z,102143.50
2022-09-20T11:00:22.293Z,102147.94
2022-09-20T11:02:57.640Z,102152.88
2022-09-20T11:05:34.934Z,102149.50
2022-09-20T11:08:16.297Z,102156.03
2022-09-20T11:10:50.425Z,102156.97
2022-09-20T11:13:41.020Z,102160.09
2022-09-20T11:16:18.537Z,102165.03
2022-09-20T11:19:11.197Z,102172.31
2022-09-20T11:21:47.556Z,102173.16
2022-09-20T11:24:36.825Z,102181.09
2022-09-20T11:27:29.564Z,102180.38
2022-09-20T11:30:29.443Z,102166.47
2022-09-20T11:33:06.048Z,102165.56
2022-09-20T11:36:04.636Z,102165.19
2022-09-20T11:38:53.000Z,102167.56
2022-09-20T11:41:31.937Z,102157.31
2022-09-20T11:44:12.457Z,102169.72
2022-09-20T11:46:45.141Z,102170.47
2022-09-20T11:49:23.912Z,102186.53
2022-09-20T11:51:59.970Z,102192.19
2022-09-20T11:54:47.005Z,102177.94
2022-09-20T11:57:19.334Z,102179.31
2022-09-20T11:59:56.652Z,102172.94
2022-09-20T12:02:35.079Z,102169.13
2022-09-20T12:05:23.304Z,102176.38
2022-09-20T12:07:57.254Z,102169.06
2022-09-20T12:10:32.964Z,102173.03
2022-09-20T12:13:19.072Z,102174.78
2022-09-20T12:16:02.581Z,102180.03
2022-09-20T12:18:35.647Z,102174.28
2022-09-20T12:21:15.424Z,102178.63
2022-09-20T12:23:57.131Z,102178.78
2022-09-20T12:26:37.287Z,102172.19
2022-09-20T12:29:21.575Z,102171.22
2022-09-20T12:31:55.620Z,102172.00
2022-09-20T12:34:36.536Z,102164.84
2022-09-20T12:37:10.509Z,102172.31
2022-09-20T12:39:50.450Z,102174.41
2022-09-20T12:42:30.346Z,102173.69
2022-09-20T12:45:21.015Z,102172.84
2022-09-20T12:47:54.773Z,102171.50
2022-09-20T12:50:46.259Z,102172.44
2022-09-20T12:53:18.743Z,102167.72
2022-09-20T12:55:56.159Z,102167.47
2022-09-20T12:58:33.638Z,102165.78
2022-09-20T13:01:08.415Z,102164.59
2022-09-20T13:03:48.157Z,102165.13
2022-09-20T13:06:20.719Z,102175.63
2022-09-20T13:09:05.662Z,102178.41
2022-09-20T13:11:47.466Z,102175.09
2022-09-20T13:14:24.633Z,102183.25
2022-09-20T13:16:59.369Z,102170.41
2022-09-20T13:19:51.889Z,102168.88
2022-09-20T13:22:24.124Z,102175.53
2022-09-20T13:24:57.767Z,102163.78
2022-09-20T13:27:34.403Z,102169.44
2022-09-20T13:30:26.874Z,102162.00
2022-09-20T13:33:17.993Z,102150.59
2022-09-20T13:35:54.384Z,102160.44
2022-09-20T13:38:30.621Z,102157.66
2022-09-20T13:41:09.194Z,102159.75
2022-09-20T13:43:43.484Z,102158.09
2022-09-20T13:46:17.235Z,102162.44
2022-09-20T13:48:54.203Z,102160.34
2022-09-20T13:51:27.686Z,102160.00
2022-09-20T13:54:18.733Z,102165.28
2022-09-20T13:56:51.494Z,102166.84
2022-09-20T13:59:24.515Z,102161.31
2022-09-20T14:01:57.498Z,102152.16
2022-09-20T14:04:31.160Z,102147.31
2022-09-20T14:07:06.089Z,102138.97
2022-09-20T14:09:39.349Z,102141.31
2022-09-20T14:12:12.648Z,102136.72
2022-09-20T14:14:46.021Z,102140.16
2022-09-20T14:17:20.641Z,102129.13
2022-09-20T14:19:58.267Z,102135.03
2022-09-20T14:22:30.606Z,102127.56
2022-09-20T14:25:12.383Z,102137.50
2022-09-20T14:27:44.639Z,102129.06
2022-09-20T14:30:38.823Z,102134.91
2022-09-20T14:33:15.263Z,102128.00
2022-09-20T14:35:51.056Z,102127.00
2022-09-20T14:38:24.757Z,102132.03
2022-09-20T14:40:57.200Z,102133.59
2022-09-20T14:43:34.954Z,102134.72
2022-09-20T14:46:15.387Z,102134.63
2022-09-20T14:48:47.777Z,102125.47
2022-09-20T14:51:22.602Z,102131.91
2022-09-20T14:54:04.166Z,102132.94
2022-09-20T14:56:38.189Z,102129.59
2022-09-20T14:59:19.418Z,102131.44
2022-09-20T15:02:03.524Z,102124.38
2022-09-20T15:04:37.792Z,102117.06
2022-09-20T15:07:13.043Z,102122.81
2022-09-20T15:09:45.475Z,102123.38
2022-09-20T15:12:19.240Z,102127.91
2022-09-20T15:14:51.532Z,102121.25
2022-09-20T15:17:24.013Z,102116.34
2022-09-20T15:19:57.416Z,102123.69
2022-09-20T15:22:30.064Z,102117.50
2022-09-20T15:25:02.905Z,102120.06
2022-09-20T15:27:35.540Z,102128.63
2022-09-20T15:30:09.533Z,102134.34
2022-09-20T15:32:43.912Z,102123.69
2022-09-20T15:35:16.481Z,102125.28
2022-09-20T15:37:48.890Z,102118.31
2022-09-20T15:40:21.247Z,102123.69
2022-09-20T15:42:58.090Z,102120.56
2022-09-20T15:45:30.422Z,102120.75
2022-09-20T15:48:03.047Z,102118.81
2022-09-20T15:50:35.436Z,102118.66
2022-09-20T15:53:07.699Z,102119.00
2022-09-20T15:55:40.010Z,102119.09
2022-09-20T15:58:13.986Z,102117.84
2022-09-20T16:00:48.348Z,102122.16
2022-09-20T16:03:21.820Z,102125.34
2022-09-20T16:06:03.947Z,102128.06
2022-09-20T16:08:38.280Z,102132.34
2022-09-20T16:11:13.192Z,102125.97
2022-09-20T16:13:46.045Z,102125.13
2022-09-20T16:16:18.431Z,102133.97
2022-09-20T16:19:09.609Z,102122.22
2022-09-20T16:21:42.945Z,102127.88
2022-09-20T16:24:16.025Z,102128.03
2022-09-20T16:26:48.275Z,102124.03
2022-09-20T16:29:22.084Z,102136.41
2022-09-20T16:31:54.962Z,102133.72
2022-09-20T16:34:34.532Z,102135.34
2022-09-20T16:37:11.746Z,102137.41
2022-09-20T16:39:44.305Z,102137.16
2022-09-20T16:42:16.929Z,102136.75
2022-09-20T16:44:49.196Z,102141.34
2022-09-20T16:47:26.346Z,102143.06
2022-09-20T16:49:58.662Z,102133.75
2022-09-20T16:52:30.981Z,102143.09
2022-09-20T16:55:04.960Z,102148.88
2022-09-20T16:57:38.353Z,102139.66
2022-09-20T17:00:11.584Z,102143.91
2022-09-20T17:02:47.716Z,102149.78
2022-09-20T17:05:20.249Z,102146.94
2022-09-20T17:07:54.132Z,102143.69
2022-09-20T17:10:28.474Z,102144.44
2022-09-20T17:13:00.884Z,102151.84
2022-09-20T17:15:33.465Z,102151.28
2022-09-20T17:18:07.324Z,102150.34
2022-09-20T17:20:40.032Z,102151.81
2022-09-20T17:23:12.431Z,102145.72
2022-09-20T17:25:45.236Z,102146.72
2022-09-20T17:28:17.775Z,102146.91
2022-09-20T17:30:50.246Z,102149.41
2022-09-20T17:33:22.586Z,102151.13
2022-09-20T17:35:55.085Z,102148.81
2022-09-20T17:38:28.595Z,102152.09
2022-09-20T17:41:01.202Z,102165.59
2022-09-20T17:43:33.741Z,102159.31
2022-09-20T17:46:07.042Z,102162.50
2022-09-20T17:48:40.388Z,102164.13
2022-09-20T17:51:12.886Z,102165.72
2022-09-20T17:53:45.751Z,102168.13
2022-09-20T17:56:18.078Z,102174.41
2022-09-20T17:58:50.628Z,102180.72
2022-09-20T18:01:23.427Z,102171.22
2022-09-20T18:03:57.230Z,102180.69
2022-09-20T18:06:31.251Z,102180.66
2022-09-20T18:09:07.912Z,102186.16
2022-09-20T18:11:50.644Z,102189.25
2022-09-20T18:14:27.435Z,102178.13
2022-09-20T18:17:01.442Z,102190.31
2022-09-20T18:19:34.346Z,102189.84
2022-09-20T18:22:06.678Z,102187.44
2022-09-20T18:24:38.924Z,102184.28
2022-09-20T18:27:11.229Z,102193.72
2022-09-20T18:29:43.799Z,102187.34
2022-09-20T18:32:17.063Z,102190.06
2022-09-20T18:34:51.226Z,102198.69
2022-09-20T18:37:23.544Z,102194.31
2022-09-20T18:39:55.834Z,102202.91
2022-09-20T18:42:28.981Z,102203.69
2022-09-20T18:45:01.325Z,102206.81
2022-09-20T18:47:33.755Z,102202.81
2022-09-20T18:50:06.636Z,102199.59
2022-09-20T18:52:38.975Z,102205.44
2022-09-20T18:55:11.527Z,102207.00
2022-09-20T18:57:43.887Z,102207.78
2022-09-20T19:00:16.359Z,102205.75
2022-09-20T19:02:58.399Z,102213.50
2022-09-20T19:05:46.139Z,102217.38
2022-09-20T19:08:34.177Z,102213.38
2022-09-20T19:11:16.075Z,102215.31
2022-09-20T19:13:54.991Z,102223.09
2022-09-20T19:16:34.583Z,102221.16
2022-09-20T19:19:17.990Z,102221.53
2022-09-20T19:22:08.122Z,102222.72
2022-09-20T19:24:56.775Z,102233.72
2022-09-20T19:27:29.472Z,102223.16
2022-09-20T19:30:02.132Z,102236.13
2022-09-20T19:32:34.541Z,102233.06
2022-09-20T19:35:13.331Z,102235.06
2022-09-20T19:37:58.203Z,102239.34
2022-09-20T19:40:35.409Z,102232.31
2022-09-20T19:43:35.120Z,102243.72
2022-09-20T19:46:13.751Z,102243.38
2022-09-20T19:49:00.043Z,102249.41
2022-09-20T19:51:35.419Z,102253.38
2022-09-20T19:54:09.873Z,102250.69
2022-09-20T19:56:45.893Z,102255.47
2022-09-20T19:59:18.875Z,102263.81
2022-09-20T20:01:52.464Z,102268.22
2022-09-20T20:04:25.052Z,102264.72
2022-09-20T20:07:17.676Z,102263.22
2022-09-20T20:09:55.912Z,102265.25
2022-09-20T20:12:32.805Z,102270.00
2022-09-20T20:15:09.392Z,102278.72
2022-09-20T20:18:02.923Z,102278.78
2022-09-20T20:20:47.044Z,102283.53
2022-09-20T20:23:38.051Z,102285.94
2022-09-20T20:26:13.338Z,102282.00
2022-09-20T20:28:45.628Z,102286.75
2022-09-20T20:31:18.917Z,102279.31
2022-09-20T20:33:52.996Z,102295.47
2022-09-20T20:36:25.299Z,102290.00
2022-09-20T20:38:59.385Z,102290.00
2022-09-20T20:41:31.882Z,102294.75
2022-09-20T20:44:06.305Z,102293.19
2022-09-20T20:46:38.651Z,102293.97
2022-09-20T20:49:10.943Z,102292.41
2022-09-20T20:51:43.286Z,102299.50
2022-09-20T20:54:16.733Z,102297.53
2022-09-20T20:56:49.089Z,102308.16
2022-09-20T20:59:21.443Z,102304.97
2022-09-20T21:01:53.814Z,102308.91
2022-09-20T21:04:28.396Z,102309.31
2022-09-20T21:07:00.991Z,102309.69
2022-09-20T21:09:33.866Z,102307.69
2022-09-20T21:12:07.425Z,102312.84
2022-09-20T21:14:40.160Z,102320.75
2022-09-20T21:17:12.519Z,102323.50
2022-09-20T21:19:44.875Z,102316.84
2022-09-20T21:22:17.183Z,102322.75
2022-09-20T21:24:51.796Z,102323.16
2022-09-20T21:27:24.587Z,102324.31
2022-09-20T21:29:57.023Z,102323.94
2022-09-20T21:32:29.265Z,102329.09
2022-09-20T21:35:01.612Z,102333.41
2022-09-20T21:37:33.936Z,102331.84
2022-09-20T21:40:07.309Z,102327.91
2022-09-20T21:42:40.042Z,102326.34
2022-09-20T21:45:12.400Z,102329.47
2022-09-20T21:47:49.011Z,102328.69
2022-09-20T21:50:22.386Z,102331.84
2022-09-20T21:52:54.925Z,102335.81
2022-09-20T21:55:27.202Z,102332.63
2022-09-20T21:57:59.472Z,102337.41
2022-09-20T22:00:31.824Z,102338.97
2022-09-20T22:03:04.140Z,102337.81
2022-09-20T22:05:37.454Z,102335.84
2022-09-20T22:08:09.744Z,102337.03
2022-09-20T22:10:42.067Z,102339.78
2022-09-20T22:13:14.382Z,102341.78
2022-09-20T22:15:46.717Z,102336.63
2022-09-20T22:18:19.055Z,102333.50
2022-09-20T22:21:01.167Z,102335.84
2022-09-20T22:23:34.130Z,102333.47
2022-09-20T22:26:08.385Z,102328.72
2022-09-20T22:28:41.103Z,102337.38
2022-09-20T22:31:14.582Z,102331.06
2022-09-20T22:33:48.631Z,102333.41
2022-09-20T22:36:22.144Z,102330.25
2022-09-20T22:38:54.888Z,102330.22
2022-09-20T22:41:28.146Z,102331.78
2022-09-20T22:44:00.674Z,102341.25
2022-09-20T22:46:33.830Z,102336.88
2022-09-20T22:49:07.306Z,102341.22
2022-09-20T22:51:39.855Z,102331.75
2022-09-20T22:54:12.368Z,102336.44
2022-09-20T22:56:44.875Z,102335.63
2022-09-20T22:59:17.429Z,102332.44
2022-09-20T23:01:49.835Z,102335.53
2022-09-20T23:04:23.505Z,102337.88
2022-09-20T23:06:55.943Z,102339.84
2022-09-20T23:09:28.393Z,102341.78
2022-09-20T23:12:00.885Z,102340.22
2022-09-20T23:14:33.351Z,102344.16
2022-09-20T23:17:05.681Z,102348.13
2022-09-20T23:19:38.161Z,102337.50
2022-09-20T23:22:10.524Z,102341.84
2022-09-20T23:24:43.360Z,102340.25
2022-09-20T23:27:15.813Z,102340.63
2022-09-20T23:29:48.183Z,102341.03
2022-09-20T23:32:20.564Z,102336.25
2022-09-20T23:34:52.962Z,102342.56
2022-09-20T23:37:25.848Z,102338.59
2022-09-20T23:39:58.392Z,102344.47
2022-09-20T23:42:30.997Z,102338.56
2022-09-20T23:45:03.540Z,102347.19
2022-09-20T23:47:35.941Z,102333.00
2022-09-20T23:50:08.348Z,102334.56
2022-09-20T23:52:40.709Z,102338.50
2022-09-20T23:55:13.295Z,102335.34
2022-09-20T23:57:45.719Z,102334.13
